sensor_id;sensor_type;location;lat;lon;timestamp;P1;durP1;ratioP1;P2;durP2;ratioP2
44572;SDS011;31762;45.420;10.072;2023-12-20T00:02:31;35.22;;;31.83;;
44572;SDS011;31762;45.420;10.072;2023-12-20T00:07:33;38.00;;;34.08;;
44572;SDS011;31762;45.420;10.072;2023-12-20T00:12:35;37.10;;;33.40;;
44572;SDS011;31762;45.420;10.072;2023-12-20T00:17:38;34.35;;;30.98;;
44572;SDS011;31762;45.420;10.072;2023-12-20T00:22:40;37.63;;;32.10;;
44572;SDS011;31762;45.420;10.072;2023-12-20T00:27:42;37.17;;;33.28;;
44572;SDS011;31762;45.420;10.072;2023-12-20T00:32:45;33.22;;;30.00;;
44572;SDS011;31762;45.420;10.072;2023-12-20T00:37:47;36.20;;;32.60;;
44572;SDS011;31762;45.420;10.072;2023-12-20T00:42:49;36.88;;;33.17;;
44572;SDS011;31762;45.420;10.072;2023-12-20T00:47:51;34.22;;;30.80;;
44572;SDS011;31762;45.420;10.072;2023-12-20T00:52:54;34.65;;;31.35;;
44572;SDS011;31762;45.420;10.072;2023-12-20T00:57:56;33.90;;;30.42;;
44572;SDS011;31762;45.420;10.072;2023-12-20T01:02:58;32.83;;;29.73;;
44572;SDS011;31762;45.420;10.072;2023-12-20T01:08:00;32.08;;;28.95;;
44572;SDS011;31762;45.420;10.072;2023-12-20T01:13:03;32.95;;;29.50;;
44572;SDS011;31762;45.420;10.072;2023-12-20T01:18:05;30.88;;;27.90;;
44572;SDS011;31762;45.420;10.072;2023-12-20T01:23:07;30.55;;;27.50;;
44572;SDS011;31762;45.420;10.072;2023-12-20T01:28:09;29.25;;;26.13;;
44572;SDS011;31762;45.420;10.072;2023-12-20T01:33:12;29.73;;;26.83;;
44572;SDS011;31762;45.420;10.072;2023-12-20T01:38:14;28.30;;;25.48;;
44572;SDS011;31762;45.420;10.072;2023-12-20T01:43:16;27.52;;;24.95;;
44572;SDS011;31762;45.420;10.072;2023-12-20T01:48:18;28.23;;;25.45;;
44572;SDS011;31762;45.420;10.072;2023-12-20T01:53:21;28.55;;;25.75;;
44572;SDS011;31762;45.420;10.072;2023-12-20T01:58:25;24.63;;;22.25;;
44572;SDS011;31762;45.420;10.072;2023-12-20T02:03:28;25.33;;;21.95;;
44572;SDS011;31762;45.420;10.072;2023-12-20T02:08:30;25.60;;;23.08;;
44572;SDS011;31762;45.420;10.072;2023-12-20T02:13:32;25.42;;;22.83;;
44572;SDS011;31762;45.420;10.072;2023-12-20T02:18:34;24.50;;;22.10;;
44572;SDS011;31762;45.420;10.072;2023-12-20T02:23:37;22.85;;;20.52;;
44572;SDS011;31762;45.420;10.072;2023-12-20T02:28:39;25.42;;;22.25;;
44572;SDS011;31762;45.420;10.072;2023-12-20T02:33:41;22.88;;;20.58;;
44572;SDS011;31762;45.420;10.072;2023-12-20T02:38:44;23.83;;;21.30;;
44572;SDS011;31762;45.420;10.072;2023-12-20T02:43:46;21.52;;;19.23;;
44572;SDS011;31762;45.420;10.072;2023-12-20T02:48:48;22.65;;;20.42;;
44572;SDS011;31762;45.420;10.072;2023-12-20T02:53:50;21.25;;;19.33;;
44572;SDS011;31762;45.420;10.072;2023-12-20T02:58:53;20.90;;;18.67;;
44572;SDS011;31762;45.420;10.072;2023-12-20T03:03:55;23.40;;;19.15;;
44572;SDS011;31762;45.420;10.072;2023-12-20T03:08:57;22.10;;;19.90;;
44572;SDS011;31762;45.420;10.072;2023-12-20T03:13:59;20.20;;;18.20;;
44572;SDS011;31762;45.420;10.072;2023-12-20T03:19:01;21.38;;;19.30;;
44572;SDS011;31762;45.420;10.072;2023-12-20T03:24:04;20.02;;;18.15;;
44572;SDS011;31762;45.420;10.072;2023-12-20T03:29:06;19.63;;;17.63;;
44572;SDS011;31762;45.420;10.072;2023-12-20T03:34:08;21.30;;;19.13;;
44572;SDS011;31762;45.420;10.072;2023-12-20T03:39:10;19.58;;;17.73;;
44572;SDS011;31762;45.420;10.072;2023-12-20T03:44:13;19.33;;;17.52;;
44572;SDS011;31762;45.420;10.072;2023-12-20T03:49:15;20.77;;;18.67;;
44572;SDS011;31762;45.420;10.072;2023-12-20T03:54:17;18.35;;;16.65;;
44572;SDS011;31762;45.420;10.072;2023-12-20T03:59:19;21.15;;;19.00;;
44572;SDS011;31762;45.420;10.072;2023-12-20T04:04:21;20.17;;;18.17;;
44572;SDS011;31762;45.420;10.072;2023-12-20T04:09:24;20.27;;;18.13;;
44572;SDS011;31762;45.420;10.072;2023-12-20T04:14:26;18.95;;;17.23;;
44572;SDS011;31762;45.420;10.072;2023-12-20T04:19:28;20.30;;;18.42;;
44572;SDS011;31762;45.420;10.072;2023-12-20T04:24:31;20.38;;;18.38;;
44572;SDS011;31762;45.420;10.072;2023-12-20T04:29:33;20.50;;;18.30;;
44572;SDS011;31762;45.420;10.072;2023-12-20T04:34:35;22.10;;;19.38;;
44572;SDS011;31762;45.420;10.072;2023-12-20T04:39:37;22.20;;;20.20;;
44572;SDS011;31762;45.420;10.072;2023-12-20T04:44:39;22.88;;;20.45;;
44572;SDS011;31762;45.420;10.072;2023-12-20T04:49:42;23.98;;;21.48;;
44572;SDS011;31762;45.420;10.072;2023-12-20T04:54:44;23.10;;;20.85;;
44572;SDS011;31762;45.420;10.072;2023-12-20T04:59:46;23.10;;;20.95;;
44572;SDS011;31762;45.420;10.072;2023-12-20T05:04:48;22.45;;;20.33;;
44572;SDS011;31762;45.420;10.072;2023-12-20T05:09:53;26.00;;;23.60;;
44572;SDS011;31762;45.420;10.072;2023-12-20T05:14:56;24.08;;;21.58;;
44572;SDS011;31762;45.420;10.072;2023-12-20T05:19:58;23.90;;;20.38;;
44572;SDS011;31762;45.420;10.072;2023-12-20T05:25:00;23.45;;;21.05;;
44572;SDS011;31762;45.420;10.072;2023-12-20T05:30:03;23.13;;;20.83;;
44572;SDS011;31762;45.420;10.072;2023-12-20T05:35:05;23.90;;;21.67;;
44572;SDS011;31762;45.420;10.072;2023-12-20T05:40:08;23.48;;;21.08;;
44572;SDS011;31762;45.420;10.072;2023-12-20T05:45:10;24.17;;;21.55;;
44572;SDS011;31762;45.420;10.072;2023-12-20T05:50:12;22.52;;;20.38;;
44572;SDS011;31762;45.420;10.072;2023-12-20T05:55:14;23.75;;;21.65;;
44572;SDS011;31762;45.420;10.072;2023-12-20T06:00:17;23.70;;;21.45;;
44572;SDS011;31762;45.420;10.072;2023-12-20T06:05:19;24.63;;;22.02;;
44572;SDS011;31762;45.420;10.072;2023-12-20T06:10:21;27.98;;;23.52;;
44572;SDS011;31762;45.420;10.072;2023-12-20T06:15:24;24.33;;;22.00;;
44572;SDS011;31762;45.420;10.072;2023-12-20T06:20:26;24.63;;;22.17;;
44572;SDS011;31762;45.420;10.072;2023-12-20T06:25:28;24.15;;;21.80;;
44572;SDS011;31762;45.420;10.072;2023-12-20T06:30:30;22.63;;;19.95;;
44572;SDS011;31762;45.420;10.072;2023-12-20T06:35:32;22.33;;;20.05;;
44572;SDS011;31762;45.420;10.072;2023-12-20T06:45:39;21.05;;;18.13;;
44572;SDS011;31762;45.420;10.072;2023-12-20T06:50:41;21.38;;;19.23;;
44572;SDS011;31762;45.420;10.072;2023-12-20T06:55:43;19.90;;;17.98;;
44572;SDS011;31762;45.420;10.072;2023-12-20T07:00:46;20.10;;;18.05;;
44572;SDS011;31762;45.420;10.072;2023-12-20T07:05:48;17.83;;;16.20;;
44572;SDS011;31762;45.420;10.072;2023-12-20T07:10:50;18.05;;;15.98;;
44572;SDS011;31762;45.420;10.072;2023-12-20T07:15:53;20.35;;;18.42;;
44572;SDS011;31762;45.420;10.072;2023-12-20T07:20:55;16.90;;;15.27;;
44572;SDS011;31762;45.420;10.072;2023-12-20T07:25:57;17.13;;;15.52;;
44572;SDS011;31762;45.420;10.072;2023-12-20T07:30:59;16.92;;;15.25;;
44572;SDS011;31762;45.420;10.072;2023-12-20T07:36:01;17.15;;;15.55;;
44572;SDS011;31762;45.420;10.072;2023-12-20T07:41:04;17.42;;;15.68;;
44572;SDS011;31762;45.420;10.072;2023-12-20T07:46:06;17.70;;;16.17;;
44572;SDS011;31762;45.420;10.072;2023-12-20T07:51:09;17.35;;;15.55;;
44572;SDS011;31762;45.420;10.072;2023-12-20T07:56:18;16.60;;;14.88;;
44572;SDS011;31762;45.420;10.072;2023-12-20T08:01:20;18.00;;;16.20;;
44572;SDS011;31762;45.420;10.072;2023-12-20T08:06:23;17.92;;;16.00;;
44572;SDS011;31762;45.420;10.072;2023-12-20T08:11:26;16.30;;;14.80;;
44572;SDS011;31762;45.420;10.072;2023-12-20T08:16:28;16.95;;;15.25;;
44572;SDS011;31762;45.420;10.072;2023-12-20T08:21:30;16.83;;;15.18;;
44572;SDS011;31762;45.420;10.072;2023-12-20T08:26:36;16.88;;;15.18;;
44572;SDS011;31762;45.420;10.072;2023-12-20T08:31:38;16.60;;;14.90;;
44572;SDS011;31762;45.420;10.072;2023-12-20T08:36:40;16.65;;;15.02;;
44572;SDS011;31762;45.420;10.072;2023-12-20T08:41:43;17.02;;;15.48;;
44572;SDS011;31762;45.420;10.072;2023-12-20T08:46:45;18.40;;;16.60;;
44572;SDS011;31762;45.420;10.072;2023-12-20T08:51:47;18.00;;;15.50;;
44572;SDS011;31762;45.420;10.072;2023-12-20T08:56:49;26.17;;;17.58;;
44572;SDS011;31762;45.420;10.072;2023-12-20T09:01:51;25.33;;;17.05;;
44572;SDS011;31762;45.420;10.072;2023-12-20T09:06:53;26.73;;;19.65;;
44572;SDS011;31762;45.420;10.072;2023-12-20T09:11:56;27.00;;;19.08;;
44572;SDS011;31762;45.420;10.072;2023-12-20T09:16:58;27.63;;;20.00;;
44572;SDS011;31762;45.420;10.072;2023-12-20T09:22:01;25.27;;;18.67;;
44572;SDS011;31762;45.420;10.072;2023-12-20T09:27:03;24.45;;;19.98;;
44572;SDS011;31762;45.420;10.072;2023-12-20T09:32:05;26.67;;;19.55;;
44572;SDS011;31762;45.420;10.072;2023-12-20T09:37:08;25.98;;;19.95;;
44572;SDS011;31762;45.420;10.072;2023-12-20T09:42:11;25.55;;;18.55;;
44572;SDS011;31762;45.420;10.072;2023-12-20T09:47:13;26.55;;;21.00;;
44572;SDS011;31762;45.420;10.072;2023-12-20T09:52:16;24.40;;;20.85;;
44572;SDS011;31762;45.420;10.072;2023-12-20T09:57:19;23.95;;;20.65;;
44572;SDS011;31762;45.420;10.072;2023-12-20T10:02:22;23.33;;;20.02;;
44572;SDS011;31762;45.420;10.072;2023-12-20T10:07:25;50.65;;;26.95;;
44572;SDS011;31762;45.420;10.072;2023-12-20T10:12:28;23.40;;;21.00;;
44572;SDS011;31762;45.420;10.072;2023-12-20T10:17:30;22.25;;;20.00;;
44572;SDS011;31762;45.420;10.072;2023-12-20T10:22:33;25.73;;;21.52;;
44572;SDS011;31762;45.420;10.072;2023-12-20T10:27:35;22.92;;;20.45;;
44572;SDS011;31762;45.420;10.072;2023-12-20T10:32:38;25.58;;;21.80;;
44572;SDS011;31762;45.420;10.072;2023-12-20T10:37:40;24.50;;;20.88;;
44572;SDS011;31762;45.420;10.072;2023-12-20T10:42:42;25.15;;;22.15;;
44572;SDS011;31762;45.420;10.072;2023-12-20T10:47:46;23.60;;;21.00;;
44572;SDS011;31762;45.420;10.072;2023-12-20T10:57:51;22.15;;;20.05;;
44572;SDS011;31762;45.420;10.072;2023-12-20T11:02:54;23.67;;;21.30;;
44572;SDS011;31762;45.420;10.072;2023-12-20T11:13:19;23.48;;;21.10;;
44572;SDS011;31762;45.420;10.072;2023-12-20T11:18:28;23.13;;;20.97;;
44572;SDS011;31762;45.420;10.072;2023-12-20T11:23:30;22.92;;;20.55;;
44572;SDS011;31762;45.420;10.072;2023-12-20T11:28:33;22.55;;;20.25;;
44572;SDS011;31762;45.420;10.072;2023-12-20T11:33:36;23.23;;;20.80;;
44572;SDS011;31762;45.420;10.072;2023-12-20T11:38:42;21.17;;;19.15;;
44572;SDS011;31762;45.420;10.072;2023-12-20T11:43:53;21.50;;;19.48;;
44572;SDS011;31762;45.420;10.072;2023-12-20T11:48:56;22.88;;;20.77;;
44572;SDS011;31762;45.420;10.072;2023-12-20T11:53:58;23.40;;;21.27;;
44572;SDS011;31762;45.420;10.072;2023-12-20T11:59:00;23.52;;;21.00;;
44572;SDS011;31762;45.420;10.072;2023-12-20T12:04:20;23.02;;;20.05;;
44572;SDS011;31762;45.420;10.072;2023-12-20T12:09:22;21.92;;;19.95;;
44572;SDS011;31762;45.420;10.072;2023-12-20T12:14:25;24.05;;;20.20;;
44572;SDS011;31762;45.420;10.072;2023-12-20T12:19:27;21.98;;;19.77;;
44572;SDS011;31762;45.420;10.072;2023-12-20T12:24:29;22.77;;;20.58;;
44572;SDS011;31762;45.420;10.072;2023-12-20T12:29:31;22.33;;;19.77;;
44572;SDS011;31762;45.420;10.072;2023-12-20T12:34:34;22.63;;;20.38;;
44572;SDS011;31762;45.420;10.072;2023-12-20T12:39:37;20.92;;;18.83;;
44572;SDS011;31762;45.420;10.072;2023-12-20T12:44:39;22.35;;;20.05;;
44572;SDS011;31762;45.420;10.072;2023-12-20T12:49:42;21.33;;;19.52;;
44572;SDS011;31762;45.420;10.072;2023-12-20T12:54:44;22.88;;;20.52;;
44572;SDS011;31762;45.420;10.072;2023-12-20T12:59:46;21.70;;;19.60;;
44572;SDS011;31762;45.420;10.072;2023-12-20T13:04:48;22.52;;;20.42;;
44572;SDS011;31762;45.420;10.072;2023-12-20T13:09:51;22.83;;;19.05;;
44572;SDS011;31762;45.420;10.072;2023-12-20T13:14:53;21.77;;;19.73;;
44572;SDS011;31762;45.420;10.072;2023-12-20T13:19:56;21.25;;;19.25;;
44572;SDS011;31762;45.420;10.072;2023-12-20T13:24:58;22.17;;;19.98;;
44572;SDS011;31762;45.420;10.072;2023-12-20T13:30:00;22.90;;;20.80;;
44572;SDS011;31762;45.420;10.072;2023-12-20T13:35:02;21.95;;;19.92;;
44572;SDS011;31762;45.420;10.072;2023-12-20T13:40:05;22.23;;;20.00;;
44572;SDS011;31762;45.420;10.072;2023-12-20T13:45:08;21.83;;;19.83;;
44572;SDS011;31762;45.420;10.072;2023-12-20T13:50:10;22.67;;;20.58;;
44572;SDS011;31762;45.420;10.072;2023-12-20T13:55:12;22.30;;;20.40;;
44572;SDS011;31762;45.420;10.072;2023-12-20T14:00:15;22.33;;;20.33;;
44572;SDS011;31762;45.420;10.072;2023-12-20T14:05:17;21.85;;;19.73;;
44572;SDS011;31762;45.420;10.072;2023-12-20T14:10:20;22.15;;;20.15;;
44572;SDS011;31762;45.420;10.072;2023-12-20T14:15:22;22.52;;;20.42;;
44572;SDS011;31762;45.420;10.072;2023-12-20T14:20:25;21.85;;;19.77;;
44572;SDS011;31762;45.420;10.072;2023-12-20T14:25:27;23.50;;;21.30;;
44572;SDS011;31762;45.420;10.072;2023-12-20T14:30:33;21.80;;;19.80;;
44572;SDS011;31762;45.420;10.072;2023-12-20T14:35:36;22.63;;;20.60;;
44572;SDS011;31762;45.420;10.072;2023-12-20T14:40:38;23.55;;;21.45;;
44572;SDS011;31762;45.420;10.072;2023-12-20T14:45:40;22.85;;;20.75;;
44572;SDS011;31762;45.420;10.072;2023-12-20T14:50:42;25.20;;;22.90;;
44572;SDS011;31762;45.420;10.072;2023-12-20T14:55:44;24.27;;;21.65;;
44572;SDS011;31762;45.420;10.072;2023-12-20T15:00:47;24.55;;;22.10;;
44572;SDS011;31762;45.420;10.072;2023-12-20T15:05:49;23.88;;;21.77;;
44572;SDS011;31762;45.420;10.072;2023-12-20T15:10:51;22.65;;;20.65;;
44572;SDS011;31762;45.420;10.072;2023-12-20T15:15:53;24.10;;;21.67;;
44572;SDS011;31762;45.420;10.072;2023-12-20T15:20:56;22.92;;;20.65;;
44572;SDS011;31762;45.420;10.072;2023-12-20T15:25:58;24.88;;;22.58;;
44572;SDS011;31762;45.420;10.072;2023-12-20T15:31:00;24.42;;;21.92;;
44572;SDS011;31762;45.420;10.072;2023-12-20T15:36:02;24.45;;;22.15;;
44572;SDS011;31762;45.420;10.072;2023-12-20T15:41:05;25.00;;;22.48;;
44572;SDS011;31762;45.420;10.072;2023-12-20T15:46:09;23.52;;;21.23;;
44572;SDS011;31762;45.420;10.072;2023-12-20T15:51:11;24.95;;;22.65;;
44572;SDS011;31762;45.420;10.072;2023-12-20T15:56:13;25.83;;;23.42;;
44572;SDS011;31762;45.420;10.072;2023-12-20T16:01:15;25.88;;;23.55;;
44572;SDS011;31762;45.420;10.072;2023-12-20T16:06:18;26.50;;;23.65;;
44572;SDS011;31762;45.420;10.072;2023-12-20T16:11:20;23.67;;;21.42;;
44572;SDS011;31762;45.420;10.072;2023-12-20T16:16:22;25.33;;;22.85;;
44572;SDS011;31762;45.420;10.072;2023-12-20T16:21:24;25.92;;;23.33;;
44572;SDS011;31762;45.420;10.072;2023-12-20T16:26:27;26.33;;;23.70;;
44572;SDS011;31762;45.420;10.072;2023-12-20T16:31:29;27.55;;;24.95;;
44572;SDS011;31762;45.420;10.072;2023-12-20T16:41:52;28.67;;;25.90;;
44572;SDS011;31762;45.420;10.072;2023-12-20T16:46:54;27.98;;;25.27;;
44572;SDS011;31762;45.420;10.072;2023-12-20T16:51:56;29.73;;;26.70;;
44572;SDS011;31762;45.420;10.072;2023-12-20T16:56:59;28.67;;;25.85;;
44572;SDS011;31762;45.420;10.072;2023-12-20T17:02:01;30.35;;;27.27;;
44572;SDS011;31762;45.420;10.072;2023-12-20T17:07:03;31.48;;;28.25;;
44572;SDS011;31762;45.420;10.072;2023-12-20T17:12:06;31.15;;;27.95;;
44572;SDS011;31762;45.420;10.072;2023-12-20T17:17:08;29.35;;;26.55;;
44572;SDS011;31762;45.420;10.072;2023-12-20T17:22:10;31.58;;;28.65;;
44572;SDS011;31762;45.420;10.072;2023-12-20T17:27:12;31.02;;;28.00;;
44572;SDS011;31762;45.420;10.072;2023-12-20T17:32:15;30.88;;;27.88;;
44572;SDS011;31762;45.420;10.072;2023-12-20T17:37:17;33.88;;;30.48;;
44572;SDS011;31762;45.420;10.072;2023-12-20T17:42:19;36.95;;;33.47;;
44572;SDS011;31762;45.420;10.072;2023-12-20T17:47:21;32.88;;;29.58;;
44572;SDS011;31762;45.420;10.072;2023-12-20T17:52:24;36.10;;;32.50;;
44572;SDS011;31762;45.420;10.072;2023-12-20T17:57:27;38.22;;;34.60;;
44572;SDS011;31762;45.420;10.072;2023-12-20T18:02:29;35.38;;;31.75;;
44572;SDS011;31762;45.420;10.072;2023-12-20T18:07:31;38.83;;;34.88;;
44572;SDS011;31762;45.420;10.072;2023-12-20T18:12:34;38.17;;;34.17;;
44572;SDS011;31762;45.420;10.072;2023-12-20T18:17:36;35.63;;;32.17;;
44572;SDS011;31762;45.420;10.072;2023-12-20T18:22:39;36.85;;;33.35;;
44572;SDS011;31762;45.420;10.072;2023-12-20T18:27:41;35.33;;;32.17;;
44572;SDS011;31762;45.420;10.072;2023-12-20T18:32:46;38.13;;;34.55;;
44572;SDS011;31762;45.420;10.072;2023-12-20T18:37:48;36.85;;;33.10;;
44572;SDS011;31762;45.420;10.072;2023-12-20T18:42:51;37.72;;;34.13;;
44572;SDS011;31762;45.420;10.072;2023-12-20T18:47:53;41.58;;;37.75;;
44572;SDS011;31762;45.420;10.072;2023-12-20T18:52:56;38.60;;;34.88;;
44572;SDS011;31762;45.420;10.072;2023-12-20T18:57:58;41.08;;;37.28;;
44572;SDS011;31762;45.420;10.072;2023-12-20T19:03:02;37.23;;;33.73;;
44572;SDS011;31762;45.420;10.072;2023-12-20T19:08:04;38.53;;;34.67;;
44572;SDS011;31762;45.420;10.072;2023-12-20T19:13:07;34.42;;;30.98;;
44572;SDS011;31762;45.420;10.072;2023-12-20T19:18:09;36.83;;;33.35;;
44572;SDS011;31762;45.420;10.072;2023-12-20T19:23:12;36.92;;;33.15;;
44572;SDS011;31762;45.420;10.072;2023-12-20T19:28:14;35.85;;;32.13;;
44572;SDS011;31762;45.420;10.072;2023-12-20T19:33:17;35.90;;;32.42;;
44572;SDS011;31762;45.420;10.072;2023-12-20T19:38:19;35.88;;;32.50;;
44572;SDS011;31762;45.420;10.072;2023-12-20T19:43:21;34.63;;;31.38;;
44572;SDS011;31762;45.420;10.072;2023-12-20T19:48:23;34.13;;;30.75;;
44572;SDS011;31762;45.420;10.072;2023-12-20T19:53:26;32.85;;;29.52;;
44572;SDS011;31762;45.420;10.072;2023-12-20T19:58:28;34.83;;;31.48;;
44572;SDS011;31762;45.420;10.072;2023-12-20T20:03:30;34.00;;;30.75;;
44572;SDS011;31762;45.420;10.072;2023-12-20T20:08:32;31.88;;;28.42;;
44572;SDS011;31762;45.420;10.072;2023-12-20T20:13:35;31.95;;;29.00;;
44572;SDS011;31762;45.420;10.072;2023-12-20T20:18:37;33.70;;;30.20;;
44572;SDS011;31762;45.420;10.072;2023-12-20T20:23:39;35.60;;;31.98;;
44572;SDS011;31762;45.420;10.072;2023-12-20T20:28:41;33.80;;;30.60;;
44572;SDS011;31762;45.420;10.072;2023-12-20T20:33:44;34.33;;;30.88;;
44572;SDS011;31762;45.420;10.072;2023-12-20T20:38:46;33.33;;;30.17;;
44572;SDS011;31762;45.420;10.072;2023-12-20T20:43:48;35.60;;;32.30;;
44572;SDS011;31762;45.420;10.072;2023-12-20T20:48:51;33.03;;;29.67;;
44572;SDS011;31762;45.420;10.072;2023-12-20T20:53:54;33.38;;;29.95;;
44572;SDS011;31762;45.420;10.072;2023-12-20T20:59:12;35.00;;;30.95;;
44572;SDS011;31762;45.420;10.072;2023-12-20T21:04:14;33.17;;;30.08;;
44572;SDS011;31762;45.420;10.072;2023-12-20T21:09:16;32.97;;;29.67;;
44572;SDS011;31762;45.420;10.072;2023-12-20T21:14:18;33.83;;;30.40;;
44572;SDS011;31762;45.420;10.072;2023-12-20T21:19:20;33.55;;;30.33;;
44572;SDS011;31762;45.420;10.072;2023-12-20T21:24:23;35.03;;;31.52;;
44572;SDS011;31762;45.420;10.072;2023-12-20T21:29:25;33.42;;;30.30;;
44572;SDS011;31762;45.420;10.072;2023-12-20T21:34:27;33.03;;;29.77;;
44572;SDS011;31762;45.420;10.072;2023-12-20T21:39:30;33.65;;;30.33;;
44572;SDS011;31762;45.420;10.072;2023-12-20T21:44:32;32.20;;;28.98;;
44572;SDS011;31762;45.420;10.072;2023-12-20T21:49:34;32.85;;;29.77;;
44572;SDS011;31762;45.420;10.072;2023-12-20T21:54:36;33.58;;;30.05;;
44572;SDS011;31762;45.420;10.072;2023-12-20T21:59:38;32.80;;;29.50;;
44572;SDS011;31762;45.420;10.072;2023-12-20T22:04:40;33.28;;;29.88;;
44572;SDS011;31762;45.420;10.072;2023-12-20T22:09:43;34.63;;;31.23;;
44572;SDS011;31762;45.420;10.072;2023-12-20T22:14:45;36.90;;;33.10;;
44572;SDS011;31762;45.420;10.072;2023-12-20T22:19:47;35.58;;;32.08;;
44572;SDS011;31762;45.420;10.072;2023-12-20T22:24:49;31.80;;;28.80;;
44572;SDS011;31762;45.420;10.072;2023-12-20T22:29:52;33.65;;;30.30;;
44572;SDS011;31762;45.420;10.072;2023-12-20T22:34:54;35.92;;;32.28;;
44572;SDS011;31762;45.420;10.072;2023-12-20T22:39:56;34.88;;;31.27;;
44572;SDS011;31762;45.420;10.072;2023-12-20T22:44:59;32.85;;;29.30;;
44572;SDS011;31762;45.420;10.072;2023-12-20T22:50:01;34.08;;;30.67;;
44572;SDS011;31762;45.420;10.072;2023-12-20T22:55:03;32.83;;;29.45;;
44572;SDS011;31762;45.420;10.072;2023-12-20T23:00:06;35.22;;;31.48;;
44572;SDS011;31762;45.420;10.072;2023-12-20T23:05:08;34.67;;;31.23;;
44572;SDS011;31762;45.420;10.072;2023-12-20T23:10:10;34.75;;;31.15;;
44572;SDS011;31762;45.420;10.072;2023-12-20T23:15:13;33.33;;;30.20;;
44572;SDS011;31762;45.420;10.072;2023-12-20T23:20:15;32.88;;;29.67;;
44572;SDS011;31762;45.420;10.072;2023-12-20T23:25:17;31.42;;;28.33;;
44572;SDS011;31762;45.420;10.072;2023-12-20T23:30:20;33.47;;;30.27;;
44572;SDS011;31762;45.420;10.072;2023-12-20T23:35:22;33.33;;;30.08;;
44572;SDS011;31762;45.420;10.072;2023-12-20T23:40:24;32.83;;;29.45;;
44572;SDS011;31762;45.420;10.072;2023-12-20T23:45:30;32.58;;;29.27;;
44572;SDS011;31762;45.420;10.072;2023-12-20T23:56:07;31.63;;;28.42;;
